Time;durP1;ratioP1;P1;durP2;ratioP2;P2;SDS_P1;SDS_P2;PMS_P1;PMS_P2;Temp;Humidity;BMP_temperature;BMP_pressure;BME280_temperature;BME280_humidity;BME280_pressure;Samples;Min_cycle;Max_cycle;Signal;HPM_P1;HPM_P2
2023/02/27 00:02:02;;;;;;;4.6;4;;;;;;;;;;;;;
2023/02/27 00:04:34;;;;;;;5.7;4.5;;;;;;;;;;;;;
2023/02/27 00:07:02;;;;;;;6.2;4.9;;;;;;;;;;;;;
2023/02/27 00:09:27;;;;;;;6.8;4.6;;;;;;;;;;;;;
2023/02/27 00:11:54;;;;;;;5.5;4.8;;;;;;;;;;;;;
2023/02/27 00:14:19;;;;;;;5.5;4.7;;;;;;;;;;;;;
2023/02/27 00:16:48;;;;;;;5.6;4.6;;;;;;;;;;;;;
2023/02/27 00:19:13;;;;;;;5.4;4.8;;;;;;;;;;;;;
2023/02/27 00:21:43;;;;;;;6.2;4.6;;;;;;;;;;;;;
2023/02/27 00:24:11;;;;;;;5.8;4.5;;;;;;;;;;;;;
2023/02/27 00:26:36;;;;;;;5.2;4.4;;;;;;;;;;;;;
2023/02/27 00:29:03;;;;;;;5.2;4.6;;;;;;;;;;;;;
2023/02/27 00:31:28;;;;;;;6.6;4.7;;;;;;;;;;;;;
2023/02/27 00:33:57;;;;;;;5.5;4.6;;;;;;;;;;;;;
2023/02/27 00:36:26;;;;;;;5.6;4.7;;;;;;;;;;;;;
2023/02/27 00:38:52;;;;;;;7;4.8;;;;;;;;;;;;;
2023/02/27 00:41:17;;;;;;;5.3;4.5;;;;;;;;;;;;;
2023/02/27 00:43:42;;;;;;;4.9;4.4;;;;;;;;;;;;;
2023/02/27 00:46:10;;;;;;;5;4.2;;;;;;;;;;;;;
2023/02/27 00:48:35;;;;;;;4.6;4.1;;;;;;;;;;;;;
2023/02/27 00:51:00;;;;;;;5.1;4.4;;;;;;;;;;;;;
2023/02/27 00:53:25;;;;;;;5.2;4.4;;;;;;;;;;;;;
2023/02/27 00:55:51;;;;;;;4.8;4.3;;;;;;;;;;;;;
2023/02/27 00:58:17;;;;;;;5.9;4.2;;;;;;;;;;;;;
2023/02/27 01:00:47;;;;;;;5;4.1;;;;;;;;;;;;;
2023/02/27 01:03:14;;;;;;;5;4.5;;;;;;;;;;;;;
2023/02/27 01:05:39;;;;;;;4.4;4;;;;;;;;;;;;;
2023/02/27 01:08:04;;;;;;;4.8;4;;;;;;;;;;;;;
2023/02/27 01:10:29;;;;;;;6;4.7;;;;;;;;;;;;;
2023/02/27 01:12:58;;;;;;;5.8;4.7;;;;;;;;;;;;;
2023/02/27 01:15:23;;;;;;;4.6;4.2;;;;;;;;;;;;;
2023/02/27 01:17:54;;;;;;;4.8;4.3;;;;;;;;;;;;;
2023/02/27 01:20:25;;;;;;;5;4.5;;;;;;;;;;;;;
2023/02/27 01:22:54;;;;;;;5.2;4.3;;;;;;;;;;;;;
2023/02/27 01:25:19;;;;;;;5.4;4.2;;;;;;;;;;;;;
2023/02/27 01:27:44;;;;;;;4.9;3.9;;;;;;;;;;;;;
2023/02/27 01:30:10;;;;;;;5.2;4.1;;;;;;;;;;;;;
2023/02/27 01:32:36;;;;;;;4.6;4.1;;;;;;;;;;;;;
2023/02/27 01:35:01;;;;;;;4.6;4.2;;;;;;;;;;;;;
2023/02/27 01:37:27;;;;;;;5.9;4.3;;;;;;;;;;;;;
2023/02/27 01:39:52;;;;;;;5.8;4.4;;;;;;;;;;;;;
2023/02/27 01:42:20;;;;;;;5.7;4.3;;;;;;;;;;;;;
2023/02/27 01:44:45;;;;;;;6.3;4.7;;;;;;;;;;;;;
2023/02/27 01:47:12;;;;;;;4.5;4;;;;;;;;;;;;;
2023/02/27 01:49:37;;;;;;;4.2;3.8;;;;;;;;;;;;;
2023/02/27 01:52:05;;;;;;;4.8;4.3;;;;;;;;;;;;;
2023/02/27 01:54:31;;;;;;;4.5;4.1;;;;;;;;;;;;;
2023/02/27 01:56:57;;;;;;;4.3;3.9;;;;;;;;;;;;;
2023/02/27 01:59:22;;;;;;;4.4;3.7;;;;;;;;;;;;;
2023/02/27 02:01:47;;;;;;;5.1;3.8;;;;;;;;;;;;;
2023/02/27 02:04:13;;;;;;;4;3.6;;;;;;;;;;;;;
2023/02/27 02:06:38;;;;;;;4.8;4.1;;;;;;;;;;;;;
2023/02/27 02:09:03;;;;;;;4.6;3.9;;;;;;;;;;;;;
2023/02/27 02:11:29;;;;;;;4.5;3.7;;;;;;;;;;;;;
2023/02/27 02:13:55;;;;;;;4.9;4.3;;;;;;;;;;;;;
2023/02/27 02:16:24;;;;;;;5;4.3;;;;;;;;;;;;;
2023/02/27 02:18:49;;;;;;;5.7;4.6;;;;;;;;;;;;;
2023/02/27 02:21:59;;;;;;;4.5;4;;;;;;;;;;;;;
2023/02/27 02:24:28;;;;;;;4.6;4.2;;;;;;;;;;;;;
2023/02/27 02:26:53;;;;;;;5.5;4.3;;;;;;;;;;;;;
2023/02/27 02:29:18;;;;;;;4.6;4.1;;;;;;;;;;;;;
2023/02/27 02:31:43;;;;;;;4.9;4.2;;;;;;;;;;;;;
2023/02/27 02:34:09;;;;;;;5.1;3.8;;;;;;;;;;;;;
2023/02/27 02:36:34;;;;;;;4.2;3.8;;;;;;;;;;;;;
2023/02/27 02:38:59;;;;;;;4.8;4;;;;;;;;;;;;;
2023/02/27 02:41:25;;;;;;;4.7;3.9;;;;;;;;;;;;;
2023/02/27 02:43:51;;;;;;;4.7;4;;;;;;;;;;;;;
2023/02/27 02:46:17;;;;;;;4.8;4.2;;;;;;;;;;;;;
2023/02/27 02:48:42;;;;;;;4.5;4.1;;;;;;;;;;;;;
2023/02/27 02:51:10;;;;;;;5;4;;;;;;;;;;;;;
2023/02/27 02:53:35;;;;;;;4.5;4.1;;;;;;;;;;;;;
2023/02/27 02:56:00;;;;;;;4.7;3.8;;;;;;;;;;;;;
2023/02/27 02:58:25;;;;;;;4.5;3.9;;;;;;;;;;;;;
2023/02/27 03:00:52;;;;;;;5.4;4.5;;;;;;;;;;;;;
2023/02/27 03:03:17;;;;;;;4.9;4.2;;;;;;;;;;;;;
2023/02/27 03:05:42;;;;;;;5.2;4.3;;;;;;;;;;;;;
2023/02/27 03:08:08;;;;;;;4.7;4.2;;;;;;;;;;;;;
2023/02/27 03:10:34;;;;;;;4.3;3.9;;;;;;;;;;;;;
2023/02/27 03:15:24;;;;;;;4.3;3.5;;;;;;;;;;;;;
2023/02/27 03:17:50;;;;;;;5.2;3.8;;;;;;;;;;;;;
2023/02/27 03:20:15;;;;;;;4.4;4;;;;;;;;;;;;;
2023/02/27 03:22:40;;;;;;;5.1;4.2;;;;;;;;;;;;;
2023/02/27 03:25:05;;;;;;;4.7;4;;;;;;;;;;;;;
2023/02/27 03:27:35;;;;;;;4.6;4.2;;;;;;;;;;;;;
2023/02/27 03:30:00;;;;;;;4.9;4.1;;;;;;;;;;;;;
2023/02/27 03:32:27;;;;;;;4.9;4;;;;;;;;;;;;;
2023/02/27 03:34:52;;;;;;;4.1;3.7;;;;;;;;;;;;;
2023/02/27 03:37:17;;;;;;;4.9;4.1;;;;;;;;;;;;;
2023/02/27 03:39:44;;;;;;;4.4;3.8;;;;;;;;;;;;;
2023/02/27 03:42:09;;;;;;;4.7;4.1;;;;;;;;;;;;;
2023/02/27 03:44:35;;;;;;;4.4;4;;;;;;;;;;;;;
2023/02/27 03:47:00;;;;;;;4.7;3.9;;;;;;;;;;;;;
2023/02/27 03:49:25;;;;;;;4.7;4.2;;;;;;;;;;;;;
2023/02/27 03:51:51;;;;;;;5.9;4.5;;;;;;;;;;;;;
2023/02/27 03:54:16;;;;;;;6.2;4.5;;;;;;;;;;;;;
2023/02/27 03:56:44;;;;;;;5.5;4.3;;;;;;;;;;;;;
2023/02/27 03:59:08;;;;;;;5.4;4.5;;;;;;;;;;;;;
2023/02/27 04:02:33;;;;;;;5;4.5;;;;;;;-2.5;84.66602;936.6649;;;;
2023/02/27 04:04:58;;;;;;;4.6;3.8;;;;;;;-2.44;84.74512;936.6609;;;;
2023/02/27 04:07:28;;;;;;;4.8;4.3;;;;;;;-2.31;84.34082;936.7214;;;;
2023/02/27 04:09:55;;;;;;;5;4.5;;;;;;;-2.2;83.62988;936.7303;;;;
2023/02/27 04:12:23;;;;;;;4.8;4.2;;;;;;;-2.17;83.58105;936.7248;;;;
2023/02/27 04:14:50;;;;;;;5.5;4.2;;;;;;;-2.16;83.31738;936.7213;;;;
2023/02/27 04:17:22;;;;;;;4.6;4;;;;;;;-2.1;83.20801;936.7876;;;;
2023/02/27 04:19:46;;;;;;;5.7;4.6;;;;;;;-2.05;83.03906;936.77;;;;
2023/02/27 04:22:12;;;;;;;4.4;4;;;;;;;-2.03;82.87793;936.7258;;;;
2023/02/27 04:24:44;;;;;;;4.3;3.9;;;;;;;-2.02;82.56836;936.728;;;;
2023/02/27 04:27:13;;;;;;;4.6;4.1;;;;;;;-1.94;82.43945;936.7665;;;;
2023/02/27 04:29:43;;;;;;;5.2;4.2;;;;;;;-1.87;82.26758;936.7575;;;;
2023/02/27 04:32:08;;;;;;;4.5;4.1;;;;;;;-1.83;82.2627;936.7103;;;;
2023/02/27 04:34:33;;;;;;;5.3;4.2;;;;;;;-1.92;82.57813;936.7414;;;;
2023/02/27 04:37:00;;;;;;;4.6;4.1;;;;;;;-2.01;82.83789;936.7894;;;;
2023/02/27 04:39:24;;;;;;;5.3;3.9;;;;;;;-2.31;84.04199;936.6987;;;;
2023/02/27 04:41:49;;;;;;;5.3;4.1;;;;;;;-2.36;84.68652;936.7767;;;;
2023/02/27 04:44:14;;;;;;;5.2;3.8;;;;;;;-2.4;84.89844;936.8172;;;;
2023/02/27 04:46:39;;;;;;;4.7;3.9;;;;;;;-2.4;85.02051;936.8078;;;;
2023/02/27 04:49:06;;;;;;;4.9;4.1;;;;;;;-2.22;84.60254;936.6998;;;;
2023/02/27 04:55:27;;;;;;;4.4;3.8;;;;;;;-2.13;83.26855;936.6692;;;;
2023/02/27 04:57:45;;;;;;;6.4;4.4;;;;;;;-2.55;85.73145;936.7758;;;;
2023/02/27 05:00:19;;;;;;;4.8;4.3;;;;;;;-2.56;86.27148;936.7599;;;;
2023/02/27 05:02:48;;;;;;;5.6;5;;;;;;;-2.42;86.16895;936.7668;;;;
2023/02/27 05:05:20;;;;;;;6.1;4.6;;;;;;;-2.41;86.24805;936.8157;;;;
2023/02/27 05:07:47;;;;;;;6.4;4.9;;;;;;;-2.47;86.11328;936.8474;;;;
2023/02/27 05:10:15;;;;;;;7.3;5.2;;;;;;;-2.56;85.81836;936.7481;;;;
2023/02/27 05:12:41;;;;;;;4.9;4;;;;;;;-2.51;85.96191;936.7767;;;;
2023/02/27 05:15:07;;;;;;;5.1;4.2;;;;;;;-2.33;85.63184;936.7553;;;;
2023/02/27 05:17:42;;;;;;;4.6;4;;;;;;;-2.38;85.36719;936.7678;;;;
2023/02/27 05:20:12;;;;;;;4.3;3.9;;;;;;;-2.55;85.2998;936.7867;;;;
2023/02/27 05:22:37;;;;;;;5.1;4.1;;;;;;;-2.51;85.64063;936.6536;;;;
2023/02/27 05:25:02;;;;;;;4.8;4.3;;;;;;;-2.66;85.99707;936.7861;;;;
2023/02/27 05:27:30;;;;;;;5.2;4.1;;;;;;;-2.65;86.54102;936.7661;;;;
2023/02/27 05:29:55;;;;;;;5.4;4.5;;;;;;;-2.62;86.75684;936.7195;;;;
2023/02/27 05:32:20;;;;;;;5.1;4.6;;;;;;;-2.54;86.35547;936.7679;;;;
2023/02/27 05:34:46;;;;;;;4.2;3.8;;;;;;;-2.57;86.00391;936.7787;;;;
2023/02/27 05:37:12;;;;;;;5.1;4.3;;;;;;;-2.68;85.67188;936.76;;;;
2023/02/27 05:39:37;;;;;;;4.3;3.9;;;;;;;-2.49;85.86621;936.8246;;;;
2023/02/27 05:42:02;;;;;;;5.3;4.1;;;;;;;-2.29;85.16406;936.7559;;;;
2023/02/27 05:44:27;;;;;;;5.8;4.2;;;;;;;-2.12;84.45508;936.7397;;;;
2023/02/27 05:46:53;;;;;;;5;4.3;;;;;;;-1.96;83.68945;936.7515;;;;
2023/02/27 05:49:18;;;;;;;5.3;4.5;;;;;;;;;;;;;
2023/02/27 05:51:43;;;;;;;5;4.2;;;;;;;;;;;;;
2023/02/27 05:54:08;;;;;;;6.5;4.9;;;;;;;;;;;;;
2023/02/27 05:56:33;;;;;;;6.4;4.9;;;;;;;;;;;;;
2023/02/27 05:58:58;;;;;;;6.5;4.7;;;;;;;;;;;;;
2023/02/27 06:01:26;;;;;;;6;4.4;;;;;;;;;;;;;
2023/02/27 06:03:52;;;;;;;5.8;4.6;;;;;;;;;;;;;
2023/02/27 06:06:16;;;;;;;6.4;5.5;;;;;;;;;;;;;
2023/02/27 06:08:41;;;;;;;5.7;4.8;;;;;;;;;;;;;
2023/02/27 06:11:06;;;;;;;6.1;4.6;;;;;;;;;;;;;
2023/02/27 06:13:32;;;;;;;5.7;5;;;;;;;;;;;;;
2023/02/27 06:15:57;;;;;;;6.1;4.7;;;;;;;;;;;;;
2023/02/27 06:18:25;;;;;;;6;4.7;;;;;;;;;;;;;
2023/02/27 06:20:50;;;;;;;6;5.4;;;;;;;;;;;;;
2023/02/27 06:23:16;;;;;;;6.7;5.4;;;;;;;;;;;;;
2023/02/27 06:25:41;;;;;;;6;4.7;;;;;;;;;;;;;
2023/02/27 06:28:08;;;;;;;6.3;5.2;;;;;;;;;;;;;
2023/02/27 06:30:32;;;;;;;7.1;5.7;;;;;;;;;;;;;
2023/02/27 06:32:59;;;;;;;5.9;5.1;;;;;;;;;;;;;
2023/02/27 06:35:23;;;;;;;6.4;5.1;;;;;;;;;;;;;
2023/02/27 06:37:48;;;;;;;6.7;5.6;;;;;;;;;;;;;
2023/02/27 06:40:14;;;;;;;7.6;6.3;;;;;;;;;;;;;
2023/02/27 06:42:38;;;;;;;7.1;5.5;;;;;;;;;;;;;
2023/02/27 06:45:08;;;;;;;7;5.6;;;;;;;;;;;;;
2023/02/27 06:47:33;;;;;;;7.8;5.7;;;;;;;;;;;;;
2023/02/27 06:49:59;;;;;;;9;6.5;;;;;;;;;;;;;
2023/02/27 06:53:03;;;;;;;7.9;6.1;;;;;;;;;;;;;
2023/02/27 06:55:21;;;;;;;8.7;6.5;;;;;;;;;;;;;
2023/02/27 07:00:10;;;;;;;9.2;6.5;;;;;;;;;;;;;
2023/02/27 07:02:34;;;;;;;8.3;6.8;;;;;;;;;;;;;
2023/02/27 07:05:00;;;;;;;7.9;6.2;;;;;;;;;;;;;
2023/02/27 07:07:25;;;;;;;8.8;6.5;;;;;;;;;;;;;
2023/02/27 07:09:50;;;;;;;8.1;6.5;;;;;;;;;;;;;
2023/02/27 07:12:15;;;;;;;7.5;6.5;;;;;;;;;;;;;
2023/02/27 07:14:42;;;;;;;8.4;6.2;;;;;;;;;;;;;
2023/02/27 07:17:07;;;;;;;8.5;6.3;;;;;;;;;;;;;
2023/02/27 07:19:34;;;;;;;8.3;6.6;;;;;;;;;;;;;
2023/02/27 07:21:58;;;;;;;9.1;6.8;;;;;;;;;;;;;
2023/02/27 07:24:24;;;;;;;8.1;6.3;;;;;;;;;;;;;
2023/02/27 07:26:49;;;;;;;7.7;5.9;;;;;;;;;;;;;
2023/02/27 07:29:15;;;;;;;8.7;5.3;;;;;;;;;;;;;
2023/02/27 07:31:39;;;;;;;6.7;4.9;;;;;;;;;;;;;
2023/02/27 07:34:05;;;;;;;6.3;5.2;;;;;;;;;;;;;
2023/02/27 07:36:31;;;;;;;6.1;4.7;;;;;;;;;;;;;
2023/02/27 07:38:57;;;;;;;6;4.9;;;;;;;;;;;;;
2023/02/27 07:41:22;;;;;;;6.1;5.3;;;;;;;;;;;;;
2023/02/27 07:43:49;;;;;;;5.7;4.9;;;;;;;;;;;;;
2023/02/27 07:46:14;;;;;;;5.2;4.7;;;;;;;;;;;;;
2023/02/27 07:48:40;;;;;;;5.4;4.7;;;;;;;;;;;;;
2023/02/27 07:51:05;;;;;;;5.2;4.6;;;;;;;;;;;;;
2023/02/27 07:53:32;;;;;;;6.7;5.3;;;;;;;;;;;;;
2023/02/27 07:55:57;;;;;;;5.8;4.9;;;;;;;;;;;;;
2023/02/27 07:58:22;;;;;;;7;4.8;;;;;;;;;;;;;
2023/02/27 08:00:47;;;;;;;6.1;5;;;;;;;;;;;;;
2023/02/27 08:03:15;;;;;;;5.7;4.9;;;;;;;;;;;;;
2023/02/27 08:05:40;;;;;;;5.5;4.9;;;;;;;;;;;;;
2023/02/27 08:08:06;;;;;;;6.4;4.9;;;;;;;;;;;;;
2023/02/27 08:10:31;;;;;;;5.8;4.8;;;;;;;;;;;;;
2023/02/27 08:12:58;;;;;;;5.7;5.1;;;;;;;;;;;;;
2023/02/27 08:15:23;;;;;;;5.2;4.7;;;;;;;;;;;;;
2023/02/27 08:17:50;;;;;;;5.4;4.6;;;;;;;;;;;;;
2023/02/27 08:20:15;;;;;;;6.2;4.7;;;;;;;;;;;;;
2023/02/27 08:22:41;;;;;;;6.4;5;;;;;;;;;;;;;
2023/02/27 08:25:06;;;;;;;6.2;4.9;;;;;;;;;;;;;
2023/02/27 08:27:33;;;;;;;5.7;5.1;;;;;;;;;;;;;
2023/02/27 08:29:58;;;;;;;6;5.1;;;;;;;;;;;;;
2023/02/27 08:32:23;;;;;;;6.2;4.8;;;;;;;;;;;;;
2023/02/27 08:34:48;;;;;;;6.4;5.4;;;;;;;;;;;;;
2023/02/27 08:37:14;;;;;;;6.2;4.9;;;;;;;;;;;;;
2023/02/27 08:39:39;;;;;;;6.9;5.3;;;;;;;;;;;;;
2023/02/27 08:42:07;;;;;;;6.7;5.3;;;;;;;;;;;;;
2023/02/27 08:44:32;;;;;;;6.5;5;;;;;;;;;;;;;
2023/02/27 08:46:59;;;;;;;5.4;4.7;;;;;;;;;;;;;
2023/02/27 08:49:24;;;;;;;6.2;4.8;;;;;;;;;;;;;
2023/02/27 08:51:49;;;;;;;5.4;4.6;;;;;;;;;;;;;
2023/02/27 08:54:14;;;;;;;8;5.4;;;;;;;;;;;;;
2023/02/27 08:56:42;;;;;;;6.9;5.7;;;;;;;;;;;;;
2023/02/27 08:59:07;;;;;;;6.4;5;;;;;;;;;;;;;
2023/02/27 09:01:33;;;;;;;5.6;5;;;;;;;;;;;;;
2023/02/27 09:03:58;;;;;;;6.6;5.2;;;;;;;;;;;;;
2023/02/27 09:06:24;;;;;;;6.4;4.8;;;;;;;;;;;;;
2023/02/27 09:08:49;;;;;;;8.3;4.9;;;;;;;;;;;;;
2023/02/27 09:11:15;;;;;;;5.3;4.8;;;;;;;;;;;;;
2023/02/27 09:13:40;;;;;;;5.7;4.7;;;;;;;;;;;;;
2023/02/27 09:16:07;;;;;;;6.6;4.8;;;;;;;;;;;;;
2023/02/27 09:18:34;;;;;;;5.9;4.9;;;;;;;;;;;;;
2023/02/27 09:20:59;;;;;;;5.6;4.7;;;;;;;;;;;;;
2023/02/27 09:23:26;;;;;;;6.7;4.7;;;;;;;;;;;;;
2023/02/27 09:25:51;;;;;;;5.5;4.8;;;;;;;;;;;;;
2023/02/27 09:28:16;;;;;;;5.3;4.5;;;;;;;;;;;;;
2023/02/27 09:30:41;;;;;;;5.2;4.4;;;;;;;;;;;;;
2023/02/27 09:33:07;;;;;;;6.8;5.3;;;;;;;;;;;;;
2023/02/27 09:35:32;;;;;;;7.2;4.8;;;;;;;;;;;;;
2023/02/27 09:37:58;;;;;;;4.9;4.4;;;;;;;;;;;;;
2023/02/27 09:40:24;;;;;;;5.6;4.7;;;;;;;;;;;;;
2023/02/27 09:42:51;;;;;;;5.9;4.3;;;;;;;;;;;;;
2023/02/27 09:45:16;;;;;;;5.7;4.2;;;;;;;;;;;;;
2023/02/27 09:47:41;;;;;;;5.1;4.6;;;;;;;;;;;;;
2023/02/27 09:50:10;;;;;;;5.2;4.4;;;;;;;;;;;;;
2023/02/27 09:52:35;;;;;;;6.2;4.8;;;;;;;;;;;;;
2023/02/27 09:55:00;;;;;;;5.5;4.7;;;;;;;;;;;;;
2023/02/27 09:57:25;;;;;;;5.6;4.6;;;;;;;;;;;;;
2023/02/27 09:59:50;;;;;;;5.8;4.8;;;;;;;;;;;;;
2023/02/27 10:02:15;;;;;;;5.1;4.6;;;;;;;;;;;;;
2023/02/27 10:04:42;;;;;;;5.5;4.5;;;;;;;;;;;;;
2023/02/27 10:07:06;;;;;;;6.1;5;;;;;;;;;;;;;
2023/02/27 10:09:33;;;;;;;7.9;4.7;;;;;;;;;;;;;
2023/02/27 10:11:58;;;;;;;5.6;4.5;;;;;;;;;;;;;
2023/02/27 10:14:23;;;;;;;5.6;4.8;;;;;;;;;;;;;
2023/02/27 10:16:48;;;;;;;6.4;5.2;;;;;;;;;;;;;
2023/02/27 10:19:16;;;;;;;4.5;4.1;;;;;;;;;;;;;
2023/02/27 10:21:41;;;;;;;5.2;4.7;;;;;;;;;;;;;
2023/02/27 10:24:08;;;;;;;5.8;4.4;;;;;;;;;;;;;
2023/02/27 10:26:33;;;;;;;5.7;4.9;;;;;;;;;;;;;
2023/02/27 10:28:58;;;;;;;5.4;4.5;;;;;;;;;;;;;
2023/02/27 10:31:23;;;;;;;4.8;4.3;;;;;;;;;;;;;
2023/02/27 10:33:48;;;;;;;5.6;4.6;;;;;;;;;;;;;
2023/02/27 10:36:14;;;;;;;4.7;4.3;;;;;;;;;;;;;
2023/02/27 10:38:39;;;;;;;6.5;4.8;;;;;;;;;;;;;
2023/02/27 10:41:05;;;;;;;5.9;4.5;;;;;;;;;;;;;
2023/02/27 10:43:30;;;;;;;5.1;4.6;;;;;;;;;;;;;
2023/02/27 10:45:57;;;;;;;5.8;4.7;;;;;;;;;;;;;
2023/02/27 10:48:23;;;;;;;5.7;4.3;;;;;;;;;;;;;
2023/02/27 10:50:50;;;;;;;6;4.5;;;;;;;;;;;;;
2023/02/27 10:53:13;;;;;;;6.8;4.7;;;;;;;;;;;;;
2023/02/27 10:55:39;;;;;;;4.8;4.1;;;;;;;;;;;;;
2023/02/27 10:58:04;;;;;;;5.2;4.3;;;;;;;;;;;;;
2023/02/27 11:00:30;;;;;;;4.8;4.3;;;;;;;;;;;;;
2023/02/27 11:02:57;;;;;;;5.8;4.1;;;;;;;;;;;;;
2023/02/27 11:05:23;;;;;;;5.6;4.1;;;;;;;;;;;;;
2023/02/27 11:07:48;;;;;;;4.9;4.3;;;;;;;;;;;;;
2023/02/27 11:10:17;;;;;;;5.4;4.2;;;;;;;;;;;;;
2023/02/27 11:12:42;;;;;;;5.1;4.4;;;;;;;;;;;;;
2023/02/27 11:15:07;;;;;;;4.5;4;;;;;;;;;;;;;
2023/02/27 11:17:35;;;;;;;4.9;4.1;;;;;;;;;;;;;
2023/02/27 11:20:01;;;;;;;4.6;4.1;;;;;;;;;;;;;
2023/02/27 11:22:26;;;;;;;4.6;3.9;;;;;;;;;;;;;
2023/02/27 11:24:51;;;;;;;4.8;4.2;;;;;;;;;;;;;
2023/02/27 11:27:16;;;;;;;5.1;4.2;;;;;;;;;;;;;
2023/02/27 11:29:43;;;;;;;4.9;4.2;;;;;;;;;;;;;
2023/02/27 11:32:08;;;;;;;4.7;4;;;;;;;;;;;;;
2023/02/27 11:34:35;;;;;;;4.9;4.3;;;;;;;;;;;;;
2023/02/27 11:37:00;;;;;;;4.2;3.8;;;;;;;;;;;;;
2023/02/27 11:39:25;;;;;;;4.9;3.7;;;;;;;;;;;;;
2023/02/27 11:41:50;;;;;;;5.1;3.9;;;;;;;;;;;;;
2023/02/27 11:44:15;;;;;;;4.5;3.9;;;;;;;;;;;;;
2023/02/27 11:46:40;;;;;;;6;4.4;;;;;;;;;;;;;
2023/02/27 11:49:06;;;;;;;4.6;4;;;;;;;;;;;;;
2023/02/27 11:51:31;;;;;;;5.2;4.3;;;;;;;;;;;;;
2023/02/27 11:53:57;;;;;;;4.6;4;;;;;;;;;;;;;
2023/02/27 11:56:25;;;;;;;4.9;3.8;;;;;;;;;;;;;
2023/02/27 11:58:50;;;;;;;4.6;4.2;;;;;;;;;;;;;
2023/02/27 12:01:16;;;;;;;4.8;4.3;;;;;;;;;;;;;
2023/02/27 12:03:41;;;;;;;5;3.9;;;;;;;;;;;;;
2023/02/27 12:06:07;;;;;;;5.1;4.4;;;;;;;;;;;;;
2023/02/27 12:08:33;;;;;;;4.2;3.8;;;;;;;;;;;;;
2023/02/27 12:10:58;;;;;;;6.1;4.2;;;;;;;;;;;;;
2023/02/27 12:13:24;;;;;;;4.9;4.1;;;;;;;;;;;;;
2023/02/27 12:15:52;;;;;;;5.3;4.6;;;;;;;;;;;;;
2023/02/27 12:18:17;;;;;;;4.9;4.2;;;;;;;;;;;;;
2023/02/27 12:20:43;;;;;;;4.7;3.7;;;;;;;;;;;;;
2023/02/27 12:23:08;;;;;;;4.7;4.2;;;;;;;;;;;;;
2023/02/27 12:25:34;;;;;;;4.9;3.8;;;;;;;;;;;;;
2023/02/27 12:27:59;;;;;;;4.6;3.9;;;;;;;;;;;;;
2023/02/27 12:30:24;;;;;;;5.3;4.2;;;;;;;;;;;;;
2023/02/27 12:32:49;;;;;;;5.5;4.9;;;;;;;;;;;;;
2023/02/27 12:35:14;;;;;;;4.1;3.4;;;;;;;;;;;;;
2023/02/27 12:37:42;;;;;;;4.1;3.7;;;;;;;;;;;;;
2023/02/27 12:40:09;;;;;;;6;4.8;;;;;;;;;;;;;
2023/02/27 12:42:36;;;;;;;4.3;3.7;;;;;;;;;;;;;
2023/02/27 12:45:01;;;;;;;4.3;3.9;;;;;;;;;;;;;
2023/02/27 12:47:26;;;;;;;4.6;3.9;;;;;;;;;;;;;
2023/02/27 12:49:51;;;;;;;5.2;3.9;;;;;;;;;;;;;
2023/02/27 12:52:18;;;;;;;6;3.8;;;;;;;;;;;;;
2023/02/27 12:54:44;;;;;;;7.3;4.9;;;;;;;;;;;;;
2023/02/27 12:57:09;;;;;;;7.5;5;;;;;;;;;;;;;
2023/02/27 12:59:34;;;;;;;3.8;3.3;;;;;;;;;;;;;
2023/02/27 13:01:59;;;;;;;4.9;4.3;;;;;;;;;;;;;
2023/02/27 13:04:25;;;;;;;6.2;3.9;;;;;;;;;;;;;
2023/02/27 13:06:49;;;;;;;4.8;3.9;;;;;;;;;;;;;
2023/02/27 13:09:16;;;;;;;6.1;4.2;;;;;;;;;;;;;
2023/02/27 13:11:42;;;;;;;5;4;;;;;;;;;;;;;
2023/02/27 13:14:09;;;;;;;5.9;4.3;;;;;;;;;;;;;
2023/02/27 13:16:34;;;;;;;5.3;4.3;;;;;;;;;;;;;
2023/02/27 13:18:59;;;;;;;4.5;4.1;;;;;;;;;;;;;
2023/02/27 13:21:27;;;;;;;5.3;4.4;;;;;;;;;;;;;
2023/02/27 13:23:52;;;;;;;5.6;4.5;;;;;;;;;;;;;
2023/02/27 13:26:17;;;;;;;4.9;4.3;;;;;;;;;;;;;
2023/02/27 13:28:42;;;;;;;6.7;4.6;;;;;;;;;;;;;
2023/02/27 13:31:07;;;;;;;5.6;4.3;;;;;;;;;;;;;
2023/02/27 13:33:32;;;;;;;5.1;4.3;;;;;;;;;;;;;
2023/02/27 13:35:57;;;;;;;6.7;4.3;;;;;;;;;;;;;
2023/02/27 13:38:22;;;;;;;6.1;4.5;;;;;;;;;;;;;
2023/02/27 13:40:47;;;;;;;5;4.1;;;;;;;;;;;;;
2023/02/27 13:43:13;;;;;;;6;4.6;;;;;;;;;;;;;
2023/02/27 13:45:39;;;;;;;5.3;4.3;;;;;;;;;;;;;
2023/02/27 13:48:05;;;;;;;6.2;4.6;;;;;;;;;;;;;
2023/02/27 13:50:30;;;;;;;5.2;3.9;;;;;;;;;;;;;
2023/02/27 13:52:55;;;;;;;5.4;4.2;;;;;;;;;;;;;
2023/02/27 13:55:20;;;;;;;6.1;4.3;;;;;;;;;;;;;
2023/02/27 13:57:45;;;;;;;5.3;4.1;;;;;;;;;;;;;
2023/02/27 14:00:10;;;;;;;5.3;4.1;;;;;;;;;;;;;
2023/02/27 14:02:36;;;;;;;5.5;3.6;;;;;;;;;;;;;
2023/02/27 14:05:01;;;;;;;4.9;4;;;;;;;;;;;;;
2023/02/27 14:07:29;;;;;;;4;3.6;;;;;;;;;;;;;
2023/02/27 14:09:54;;;;;;;6.2;3.9;;;;;;;;;;;;;
2023/02/27 14:12:21;;;;;;;4.4;3.8;;;;;;;;;;;;;
2023/02/27 14:14:46;;;;;;;4.8;4.3;;;;;;;;;;;;;
2023/02/27 14:17:12;;;;;;;5.5;4.3;;;;;;;;;;;;;
2023/02/27 14:19:37;;;;;;;4.6;3.9;;;;;;;;;;;;;
2023/02/27 14:22:05;;;;;;;5.6;4;;;;;;;;;;;;;
2023/02/27 14:24:30;;;;;;;5;3.9;;;;;;;;;;;;;
2023/02/27 14:26:58;;;;;;;6.1;4.6;;;;;;;;;;;;;
2023/02/27 14:29:23;;;;;;;5.2;3.7;;;;;;;;;;;;;
2023/02/27 14:31:48;;;;;;;5.3;4.2;;;;;;;;;;;;;
2023/02/27 14:34:14;;;;;;;5;4.3;;;;;;;;;;;;;
2023/02/27 14:36:39;;;;;;;5.1;4;;;;;;;;;;;;;
2023/02/27 14:39:05;;;;;;;4.6;3.8;;;;;;;;;;;;;
2023/02/27 14:41:30;;;;;;;4.6;4;;;;;;;;;;;;;
2023/02/27 14:43:58;;;;;;;5.6;4.1;;;;;;;;;;;;;
2023/02/27 14:46:20;;;;;;;5.2;3.8;;;;;;;;;;;;;
2023/02/27 14:48:45;;;;;;;5.6;4.1;;;;;;;;;;;;;
2023/02/27 14:51:11;;;;;;;6.4;4.4;;;;;;;;;;;;;
2023/02/27 14:53:37;;;;;;;5.6;4.1;;;;;;;;;;;;;
2023/02/27 14:56:02;;;;;;;4.3;3.9;;;;;;;;;;;;;
2023/02/27 14:58:27;;;;;;;4.7;4.1;;;;;;;;;;;;;
2023/02/27 15:00:54;;;;;;;4.9;4;;;;;;;;;;;;;
2023/02/27 15:03:18;;;;;;;6.6;4;;;;;;;;;;;;;
2023/02/27 15:05:47;;;;;;;6.2;4.5;;;;;;;;;;;;;
2023/02/27 15:08:12;;;;;;;4.4;4;;;;;;;;;;;;;
2023/02/27 15:10:37;;;;;;;6.1;4.6;;;;;;;;;;;;;
2023/02/27 15:13:02;;;;;;;5.5;4.7;;;;;;;;;;;;;
2023/02/27 15:15:27;;;;;;;6;4.5;;;;;;;;;;;;;
2023/02/27 15:17:53;;;;;;;6.1;4.1;;;;;;;;;;;;;
2023/02/27 15:20:19;;;;;;;5.5;4.5;;;;;;;;;;;;;
2023/02/27 15:22:44;;;;;;;5.4;4.8;;;;;;;;;;;;;
2023/02/27 15:25:12;;;;;;;8.3;4.9;;;;;;;;;;;;;
2023/02/27 15:27:37;;;;;;;6.5;4.7;;;;;;;;;;;;;
2023/02/27 15:30:02;;;;;;;7.3;4.8;;;;;;;;;;;;;
2023/02/27 15:32:27;;;;;;;6;4.9;;;;;;;;;;;;;
2023/02/27 15:34:56;;;;;;;7.1;4.8;;;;;;;;;;;;;
2023/02/27 15:37:21;;;;;;;8.4;5.1;;;;;;;;;;;;;
2023/02/27 15:39:46;;;;;;;5.7;4.6;;;;;;;;;;;;;
2023/02/27 15:42:11;;;;;;;6.5;4.8;;;;;;;;;;;;;
2023/02/27 15:44:37;;;;;;;5.8;4.8;;;;;;;;;;;;;
2023/02/27 15:47:03;;;;;;;6.1;4.9;;;;;;;;;;;;;
2023/02/27 15:49:31;;;;;;;6.4;4.9;;;;;;;;;;;;;
2023/02/27 15:51:56;;;;;;;7.6;4.9;;;;;;;;;;;;;
2023/02/27 15:54:24;;;;;;;6.7;5.1;;;;;;;;;;;;;
2023/02/27 15:56:49;;;;;;;6.5;5;;;;;;;;;;;;;
2023/02/27 15:59:14;;;;;;;7.1;5;;;;;;;;;;;;;
2023/02/27 16:01:42;;;;;;;6.2;5.1;;;;;;;;;;;;;
2023/02/27 16:04:07;;;;;;;6.5;5.1;;;;;;;;;;;;;
2023/02/27 16:06:32;;;;;;;7.7;5.5;;;;;;;;;;;;;
2023/02/27 16:08:57;;;;;;;5.1;4.6;;;;;;;;;;;;;
2023/02/27 16:11:26;;;;;;;7.5;4.8;;;;;;;;;;;;;
2023/02/27 16:13:51;;;;;;;7.2;5.4;;;;;;;;;;;;;
2023/02/27 16:16:19;;;;;;;6.4;5;;;;;;;;;;;;;
2023/02/27 16:18:44;;;;;;;9.5;5.9;;;;;;;;;;;;;
2023/02/27 16:21:11;;;;;;;7.4;5.3;;;;;;;;;;;;;
2023/02/27 16:23:36;;;;;;;6.9;5.5;;;;;;;;;;;;;
2023/02/27 16:26:03;;;;;;;7;5.5;;;;;;;;;;;;;
2023/02/27 16:28:28;;;;;;;7.9;5.4;;;;;;;;;;;;;
2023/02/27 16:30:53;;;;;;;6.4;5.2;;;;;;;;;;;;;
2023/02/27 16:33:18;;;;;;;9.3;5.9;;;;;;;;;;;;;
2023/02/27 16:35:43;;;;;;;7.4;5.3;;;;;;;;;;;;;
2023/02/27 16:38:09;;;;;;;7.3;6;;;;;;;;;;;;;
2023/02/27 16:40:34;;;;;;;6.4;5.3;;;;;;;;;;;;;
2023/02/27 16:43:01;;;;;;;7.3;5.5;;;;;;;;;;;;;
2023/02/27 16:45:25;;;;;;;7.5;6;;;;;;;;;;;;;
2023/02/27 16:47:51;;;;;;;7.4;5.3;;;;;;;;;;;;;
2023/02/27 16:50:17;;;;;;;7.7;6;;;;;;;;;;;;;
2023/02/27 16:52:44;;;;;;;7.9;5.8;;;;;;;;;;;;;
2023/02/27 16:55:10;;;;;;;9;5.8;;;;;;;;;;;;;
2023/02/27 16:57:35;;;;;;;8.4;6.1;;;;;;;;;;;;;
2023/02/27 17:00:00;;;;;;;8.6;5.8;;;;;;;;;;;;;
2023/02/27 17:02:28;;;;;;;10.1;6.2;;;;;;;;;;;;;
2023/02/27 17:04:53;;;;;;;9.1;5.8;;;;;;;;;;;;;
2023/02/27 17:07:18;;;;;;;7.6;5.9;;;;;;;;;;;;;
2023/02/27 17:09:43;;;;;;;7.2;6;;;;;;;;;;;;;
2023/02/27 17:12:11;;;;;;;9.1;5.9;;;;;;;;;;;;;
2023/02/27 17:14:36;;;;;;;9.2;6.2;;;;;;;;;;;;;
2023/02/27 17:17:04;;;;;;;9.2;6.5;;;;;;;;;;;;;
2023/02/27 17:19:29;;;;;;;8.6;6.3;;;;;;;;;;;;;
2023/02/27 17:21:54;;;;;;;8.5;6;;;;;;;;;;;;;
2023/02/27 17:24:20;;;;;;;8.2;5.9;;;;;;;;;;;;;
2023/02/27 17:26:45;;;;;;;8.2;6;;;;;;;;;;;;;
2023/02/27 17:29:11;;;;;;;7.9;6.2;;;;;;;;;;;;;
2023/02/27 17:31:40;;;;;;;7.7;5.9;;;;;;;;;;;;;
2023/02/27 17:34:03;;;;;;;8.9;6.1;;;;;;;;;;;;;
2023/02/27 17:36:30;;;;;;;10.7;6.6;;;;;;;;;;;;;
2023/02/27 17:38:56;;;;;;;9.3;6.4;;;;;;;;;;;;;
2023/02/27 17:41:22;;;;;;;9;6.4;;;;;;;;;;;;;
2023/02/27 17:43:47;;;;;;;9;6.8;;;;;;;;;;;;;
2023/02/27 17:46:13;;;;;;;8;6.1;;;;;;;;;;;;;
2023/02/27 17:48:37;;;;;;;7.9;6.3;;;;;;;;;;;;;
2023/02/27 17:51:03;;;;;;;8;6.3;;;;;;;;;;;;;
2023/02/27 17:53:28;;;;;;;7.3;6.2;;;;;;;;;;;;;
2023/02/27 17:55:54;;;;;;;10.3;6.6;;;;;;;;;;;;;
2023/02/27 17:58:20;;;;;;;9.1;6.8;;;;;;;;;;;;;
2023/02/27 18:00:45;;;;;;;9;6.7;;;;;;;;;;;;;
2023/02/27 18:03:10;;;;;;;8.2;6.6;;;;;;;;;;;;;
2023/02/27 18:05:36;;;;;;;9;6.6;;;;;;;;;;;;;
2023/02/27 18:08:01;;;;;;;8.8;6.7;;;;;;;;;;;;;
2023/02/27 18:10:26;;;;;;;7.2;5.8;;;;;;;;;;;;;
2023/02/27 18:12:53;;;;;;;8.1;5.8;;;;;;;;;;;;;
2023/02/27 18:15:18;;;;;;;9.4;6.6;;;;;;;;;;;;;
2023/02/27 18:17:45;;;;;;;8.4;6.6;;;;;;;;;;;;;
2023/02/27 18:20:10;;;;;;;9.6;7.1;;;;;;;;;;;;;
2023/02/27 18:22:37;;;;;;;7.9;6.3;;;;;;;;;;;;;
2023/02/27 18:25:02;;;;;;;10.6;6.6;;;;;;;;;;;;;
2023/02/27 18:27:28;;;;;;;8.8;6.2;;;;;;;;;;;;;
2023/02/27 18:29:53;;;;;;;9.5;6.5;;;;;;;;;;;;;
2023/02/27 18:32:19;;;;;;;9.6;7.1;;;;;;;;;;;;;
2023/02/27 18:34:44;;;;;;;10.6;7.1;;;;;;;;;;;;;
2023/02/27 18:37:10;;;;;;;8.6;6.3;;;;;;;;;;;;;
2023/02/27 18:39:35;;;;;;;8.4;6.3;;;;;;;;;;;;;
2023/02/27 18:42:00;;;;;;;8.6;6.5;;;;;;;;;;;;;
2023/02/27 18:44:25;;;;;;;9.1;6.3;;;;;;;;;;;;;
2023/02/27 18:46:52;;;;;;;8.6;7;;;;;;;;;;;;;
2023/02/27 18:49:17;;;;;;;8.3;6.4;;;;;;;;;;;;;
2023/02/27 18:51:44;;;;;;;7.7;6.4;;;;;;;;;;;;;
2023/02/27 18:54:10;;;;;;;7.8;6.1;;;;;;;;;;;;;
2023/02/27 18:56:36;;;;;;;7.3;6;;;;;;;;;;;;;
2023/02/27 18:59:03;;;;;;;7.6;6.1;;;;;;;;;;;;;
2023/02/27 19:01:26;;;;;;;9.6;6.5;;;;;;;;;;;;;
2023/02/27 19:03:52;;;;;;;8.8;5.9;;;;;;;;;;;;;
2023/02/27 19:06:17;;;;;;;8.7;5.9;;;;;;;;;;;;;
2023/02/27 19:08:44;;;;;;;7.8;6.3;;;;;;;;;;;;;
2023/02/27 19:11:09;;;;;;;7.7;6.3;;;;;;;;;;;;;
2023/02/27 19:13:34;;;;;;;8.4;6.4;;;;;;;;;;;;;
2023/02/27 19:15:59;;;;;;;9.4;6.4;;;;;;;;;;;;;
2023/02/27 19:18:24;;;;;;;9;6.4;;;;;;;;;;;;;
2023/02/27 19:20:52;;;;;;;9.3;6.6;;;;;;;;;;;;;
2023/02/27 19:23:17;;;;;;;10;7.6;;;;;;;;;;;;;
2023/02/27 19:25:44;;;;;;;9;7.2;;;;;;;;;;;;;
2023/02/27 19:28:09;;;;;;;9.3;6.5;;;;;;;;;;;;;
2023/02/27 19:30:36;;;;;;;9.8;7.2;;;;;;;;;;;;;
2023/02/27 19:33:01;;;;;;;8.7;7;;;;;;;;;;;;;
2023/02/27 19:35:26;;;;;;;8.9;7.1;;;;;;;;;;;;;
2023/02/27 19:37:55;;;;;;;10.2;7.3;;;;;;;;;;;;;
2023/02/27 19:40:16;;;;;;;10.9;7.5;;;;;;;;;;;;;
2023/02/27 19:42:43;;;;;;;11.9;7.9;;;;;;;;;;;;;
2023/02/27 19:45:11;;;;;;;11.1;7.8;;;;;;;;;;;;;
2023/02/27 19:47:38;;;;;;;10.2;7.1;;;;;;;;;;;;;
2023/02/27 19:50:03;;;;;;;10.7;7.4;;;;;;;;;;;;;
2023/02/27 19:52:31;;;;;;;13.5;7.4;;;;;;;;;;;;;
2023/02/27 19:54:56;;;;;;;9.9;7.2;;;;;;;;;;;;;
2023/02/27 19:57:22;;;;;;;9.6;7.2;;;;;;;;;;;;;
2023/02/27 19:59:48;;;;;;;9.6;7.2;;;;;;;;;;;;;
2023/02/27 20:02:13;;;;;;;10;7.1;;;;;;;;;;;;;
2023/02/27 20:04:38;;;;;;;8.6;7.1;;;;;;;;;;;;;